createdAt,value
2023-02-21T00:00:01.706Z,95713.59
2023-02-21T00:02:57.387Z,95708.81
2023-02-21T00:05:42.341Z,95720.25
2023-02-21T00:08:27.508Z,95712.03
2023-02-21T00:11:12.607Z,95710.06
2023-02-21T00:13:57.994Z,95708.66
2023-02-21T00:16:43.530Z,95704.66
2023-02-21T00:19:28.703Z,95698.13
2023-02-21T00:22:14.025Z,95696.41
2023-02-21T00:24:59.362Z,95696.88
2023-02-21T00:27:44.626Z,95698.88
2023-02-21T00:30:31.041Z,95703.63
2023-02-21T00:33:16.563Z,95701.75
2023-02-21T00:36:01.639Z,95698.19
2023-02-21T00:38:46.820Z,95702.06
2023-02-21T00:41:32.164Z,95698.81
2023-02-21T00:44:17.394Z,95698.66
2023-02-21T00:47:03.109Z,95712.47
2023-02-21T00:49:48.410Z,95697.47
2023-02-21T00:52:33.562Z,95700.16
2023-02-21T00:55:18.874Z,95699.47
2023-02-21T00:58:04.105Z,95691.50
2023-02-21T01:00:49.865Z,95695.78
2023-02-21T01:03:35.801Z,95686.00
2023-02-21T01:06:20.830Z,95683.13
2023-02-21T01:09:06.112Z,95686.75
2023-02-21T01:11:51.748Z,95686.75
2023-02-21T01:14:36.928Z,95685.63
2023-02-21T01:17:22.126Z,95684.72
2023-02-21T01:20:07.199Z,95687.03
2023-02-21T01:22:53.144Z,95678.78
2023-02-21T01:25:38.925Z,95674.81
2023-02-21T01:28:24.285Z,95672.63
2023-02-21T01:31:09.384Z,95682.00
2023-02-21T01:33:59.646Z,95671.94
2023-02-21T01:36:45.861Z,95668.78
2023-02-21T01:39:32.554Z,95661.50
2023-02-21T01:42:18.745Z,95663.81
2023-02-21T01:45:06.970Z,95666.44
2023-02-21T01:47:52.605Z,95669.47
2023-02-21T01:50:47.965Z,95671.50
2023-02-21T01:53:36.725Z,95661.88
2023-02-21T01:56:24.743Z,95657.88
2023-02-21T01:59:12.680Z,95654.44
2023-02-21T02:02:05.882Z,95657.22
2023-02-21T02:04:52.454Z,95647.16
2023-02-21T02:07:38.677Z,95646.03
2023-02-21T02:10:27.413Z,95640.13
2023-02-21T02:13:05.872Z,95642.88
2023-02-21T02:15:38.281Z,95641.50
2023-02-21T02:18:30.400Z,95636.97
2023-02-21T02:21:25.348Z,95638.31
2023-02-21T02:24:22.884Z,95644.22
2023-02-21T02:27:04.612Z,95634.88
2023-02-21T02:29:52.352Z,95626.50
2023-02-21T02:32:37.601Z,95628.28
2023-02-21T02:35:27.710Z,95628.69
2023-02-21T02:38:24.539Z,95626.31
2023-02-21T02:41:04.388Z,95627.16
2023-02-21T02:43:44.424Z,95630.06
2023-02-21T02:46:23.643Z,95630.31
2023-02-21T02:49:05.642Z,95624.13
2023-02-21T02:51:34.118Z,95625.09
2023-02-21T02:54:02.700Z,95625.06
2023-02-21T02:56:30.112Z,95615.19
2023-02-21T02:59:20.500Z,95616.03
2023-02-21T03:02:19.722Z,95620.84
2023-02-21T03:05:08.098Z,95620.09
2023-02-21T03:07:58.076Z,95618.34
2023-02-21T03:10:56.836Z,95615.47
2023-02-21T03:13:45.203Z,95622.03
2023-02-21T03:16:29.793Z,95618.59
2023-02-21T03:19:20.294Z,95617.34
2023-02-21T03:21:52.339Z,95615.72
2023-02-21T03:24:21.414Z,95621.03
2023-02-21T03:26:51.572Z,95624.31
2023-02-21T03:30:00.614Z,95625.16
2023-02-21T03:32:45.378Z,95627.63
2023-02-21T03:35:13.014Z,95625.56
2023-02-21T03:37:52.713Z,95636.44
2023-02-21T03:40:26.072Z,95634.09
2023-02-21T03:42:54.549Z,95631.88
2023-02-21T03:45:22.004Z,95626.25
2023-02-21T03:48:02.666Z,95624.56
2023-02-21T03:50:30.287Z,95624.16
2023-02-21T03:52:56.959Z,95636.50
2023-02-21T03:55:24.425Z,95631.66
2023-02-21T03:57:51.474Z,95631.91
2023-02-21T04:00:18.668Z,95630.13
2023-02-21T04:02:49.381Z,95626.31
2023-02-21T04:05:25.367Z,95631.00
2023-02-21T04:07:51.961Z,95628.09
2023-02-21T04:10:18.509Z,95627.69
2023-02-21T04:12:46.485Z,95630.19
2023-02-21T04:15:13.132Z,95627.69
2023-02-21T04:17:39.956Z,95630.72
2023-02-21T04:20:08.726Z,95632.22
2023-02-21T04:22:40.453Z,95631.53
2023-02-21T04:25:08.081Z,95637.09
2023-02-21T04:27:41.103Z,95631.38
2023-02-21T04:30:08.482Z,95627.41
2023-02-21T04:32:35.306Z,95636.59
2023-02-21T04:35:07.278Z,95627.25
2023-02-21T04:37:34.381Z,95620.41
2023-02-21T04:40:00.952Z,95623.03
2023-02-21T04:42:27.703Z,95624.97
2023-02-21T04:44:59.987Z,95625.91
2023-02-21T04:47:27.251Z,95622.72
2023-02-21T04:49:53.832Z,95620.19
2023-02-21T04:52:20.565Z,95624.56
2023-02-21T04:54:48.072Z,95623.63
2023-02-21T04:57:16.523Z,95617.25
2023-02-21T04:59:43.089Z,95612.34
2023-02-21T05:02:10.116Z,95615.06
2023-02-21T05:04:37.139Z,95613.44
2023-02-21T05:07:04.985Z,95611.94
2023-02-21T05:09:31.889Z,95602.44
2023-02-21T05:11:58.443Z,95604.09
2023-02-21T05:14:24.975Z,95602.34
2023-02-21T05:16:51.745Z,95590.66
2023-02-21T05:19:28.301Z,95590.69
2023-02-21T05:21:59.984Z,95597.28
2023-02-21T05:24:28.755Z,95594.78
2023-02-21T05:26:56.416Z,95594.34
2023-02-21T05:29:22.962Z,95591.53
2023-02-21T05:31:49.603Z,95601.41
2023-02-21T05:34:19.199Z,95588.66
2023-02-21T05:36:46.076Z,95597.03
2023-02-21T05:39:12.883Z,95592.09
2023-02-21T05:41:39.427Z,95588.81
2023-02-21T05:44:06.416Z,95589.19
2023-02-21T05:46:34.932Z,95593.63
2023-02-21T05:49:03.613Z,95592.50
2023-02-21T05:51:39.086Z,95596.50
2023-02-21T05:54:07.665Z,95598.16
2023-02-21T05:56:39.387Z,95593.19
2023-02-21T05:59:06.046Z,95581.22
2023-02-21T06:01:32.594Z,95581.75
2023-02-21T06:03:59.124Z,95583.31
2023-02-21T06:06:25.897Z,95586.47
2023-02-21T06:08:52.403Z,95581.38
2023-02-21T06:11:25.159Z,95589.75
2023-02-21T06:13:52.748Z,95585.34
2023-02-21T06:16:19.461Z,95584.94
2023-02-21T06:18:49.245Z,95586.59
2023-02-21T06:21:16.113Z,95587.28
2023-02-21T06:23:42.819Z,95587.00
2023-02-21T06:26:09.389Z,95590.84
2023-02-21T06:28:36.033Z,95591.94
2023-02-21T06:31:04.611Z,95594.81
2023-02-21T06:33:31.986Z,95597.06
2023-02-21T06:35:58.707Z,95587.84
2023-02-21T06:38:26.118Z,95594.03
2023-02-21T06:40:52.658Z,95586.22
2023-02-21T06:43:19.372Z,95600.09
2023-02-21T06:45:45.882Z,95598.16
2023-02-21T06:48:17.200Z,95599.09
2023-02-21T06:50:44.350Z,95606.03
2023-02-21T06:53:11.210Z,95597.59
2023-02-21T06:55:37.847Z,95601.00
2023-02-21T06:58:05.122Z,95608.47
2023-02-21T07:00:31.788Z,95608.00
2023-02-21T07:02:58.360Z,95608.38
2023-02-21T07:05:25.359Z,95604.19
2023-02-21T07:07:52.036Z,95610.78
2023-02-21T07:10:18.660Z,95606.84
2023-02-21T07:12:45.374Z,95614.22
2023-02-21T07:15:12.227Z,95619.25
2023-02-21T07:17:38.802Z,95616.72
2023-02-21T07:20:05.826Z,95615.81
2023-02-21T07:22:32.411Z,95614.50
2023-02-21T07:24:58.914Z,95616.28
2023-02-21T07:27:25.443Z,95608.50
2023-02-21T07:29:52.019Z,95613.38
2023-02-21T07:32:18.841Z,95610.19
2023-02-21T07:34:45.676Z,95620.63
2023-02-21T07:37:12.373Z,95623.81
2023-02-21T07:39:38.985Z,95617.19
2023-02-21T07:42:05.589Z,95616.22
2023-02-21T07:44:32.192Z,95611.16
2023-02-21T07:46:58.747Z,95611.16
2023-02-21T07:49:25.551Z,95612.59
2023-02-21T07:51:52.458Z,95619.19
2023-02-21T07:54:19.382Z,95621.81
2023-02-21T07:56:49.605Z,95630.09
2023-02-21T07:59:16.455Z,95627.88
2023-02-21T08:01:43.135Z,95632.00
2023-02-21T08:04:09.860Z,95625.97
2023-02-21T08:06:36.837Z,95632.88
2023-02-21T08:09:05.028Z,95635.06
2023-02-21T08:11:32.710Z,95630.44
2023-02-21T08:13:59.337Z,95632.94
2023-02-21T08:16:26.159Z,95630.63
2023-02-21T08:18:53.125Z,95634.25
2023-02-21T08:21:19.688Z,95627.66
2023-02-21T08:23:46.494Z,95631.09
2023-02-21T08:26:13.023Z,95623.34
2023-02-21T08:28:39.612Z,95634.38
2023-02-21T08:31:07.228Z,95627.94
2023-02-21T08:33:33.778Z,95622.44
2023-02-21T08:36:00.354Z,95626.97
2023-02-21T08:38:26.885Z,95623.56
2023-02-21T08:40:53.885Z,95629.28
2023-02-21T08:43:21.286Z,95627.00
2023-02-21T08:45:47.918Z,95626.69
2023-02-21T08:48:14.445Z,95634.47
2023-02-21T08:50:40.984Z,95633.66
2023-02-21T08:53:07.546Z,95625.72
2023-02-21T08:55:34.129Z,95639.22
2023-02-21T08:58:00.791Z,95632.41
2023-02-21T09:00:30.129Z,95639.56
2023-02-21T09:02:58.485Z,95634.56
2023-02-21T09:05:27.994Z,95636.63
2023-02-21T09:07:59.162Z,95639.22
2023-02-21T09:10:30.459Z,95638.66
2023-02-21T09:12:57.141Z,95634.16
2023-02-21T09:15:23.752Z,95637.53
2023-02-21T09:17:50.821Z,95637.00
2023-02-21T09:20:20.507Z,95629.69
2023-02-21T09:22:47.459Z,95639.34
2023-02-21T09:25:18.956Z,95635.63
2023-02-21T09:27:45.559Z,95634.25
2023-02-21T09:30:19.079Z,95631.50
2023-02-21T09:32:45.721Z,95627.97
2023-02-21T09:35:14.080Z,95628.75
2023-02-21T09:37:42.324Z,95624.53
2023-02-21T09:40:32.229Z,95632.53
2023-02-21T09:43:01.200Z,95624.47
2023-02-21T09:45:33.364Z,95624.34
2023-02-21T09:48:06.387Z,95622.44
2023-02-21T09:50:39.883Z,95619.72
2023-02-21T09:53:08.030Z,95623.97
2023-02-21T09:55:40.310Z,95626.56
2023-02-21T09:58:15.639Z,95625.44
2023-02-21T10:00:44.719Z,95625.19
2023-02-21T10:03:34.576Z,95621.66
2023-02-21T10:06:17.326Z,95616.53
2023-02-21T10:09:05.756Z,95619.78
2023-02-21T10:11:48.222Z,95615.59
2023-02-21T10:14:37.269Z,95614.34
2023-02-21T10:17:33.966Z,95613.03
2023-02-21T10:20:13.501Z,95605.41
2023-02-21T10:22:46.378Z,95605.13
2023-02-21T10:25:23.004Z,95609.09
2023-02-21T10:27:52.348Z,95609.41
2023-02-21T10:30:37.086Z,95607.66
2023-02-21T10:33:06.552Z,95603.38
2023-02-21T10:35:34.438Z,95613.34
2023-02-21T10:38:03.571Z,95608.03
2023-02-21T10:40:37.835Z,95609.03
2023-02-21T10:43:23.497Z,95605.94
2023-02-21T10:46:01.658Z,95603.84
2023-02-21T10:48:34.682Z,95604.63
2023-02-21T10:51:14.243Z,95603.84
2023-02-21T10:53:44.108Z,95598.06
2023-02-21T10:56:18.465Z,95600.31
2023-02-21T10:59:01.233Z,95597.31
2023-02-21T11:01:30.181Z,95595.34
2023-02-21T11:04:17.115Z,95592.31
2023-02-21T11:07:06.009Z,95585.13
2023-02-21T11:09:32.505Z,95582.06
2023-02-21T11:12:06.591Z,95572.91
2023-02-21T11:14:35.001Z,95569.47
2023-02-21T11:17:07.656Z,95572.13
2023-02-21T11:19:55.637Z,95562.47
2023-02-21T11:22:42.445Z,95562.81
2023-02-21T11:25:11.949Z,95564.78
2023-02-21T11:27:39.116Z,95561.09
2023-02-21T11:30:20.069Z,95549.88
2023-02-21T11:32:56.964Z,95543.50
2023-02-21T11:35:34.497Z,95545.50
2023-02-21T11:38:04.761Z,95547.59
2023-02-21T11:40:47.393Z,95546.50
2023-02-21T11:43:22.385Z,95529.91
2023-02-21T11:46:07.102Z,95529.03
2023-02-21T11:48:50.459Z,95534.84
2023-02-21T11:51:44.289Z,95517.81
2023-02-21T11:54:11.197Z,95511.34
2023-02-21T11:57:03.921Z,95509.16
2023-02-21T11:59:52.502Z,95504.31
2023-02-21T12:02:42.374Z,95505.09
2023-02-21T12:05:24.982Z,95496.09
2023-02-21T12:08:19.530Z,95491.47
2023-02-21T12:11:04.223Z,95493.00
2023-02-21T12:14:03.459Z,95482.81
2023-02-21T12:17:08.043Z,95486.69
2023-02-21T12:19:51.829Z,95483.41
2023-02-21T12:22:28.123Z,95483.69
2023-02-21T12:25:18.942Z,95480.13
2023-02-21T12:28:17.032Z,95473.91
2023-02-21T12:31:14.929Z,95465.75
2023-02-21T12:33:49.298Z,95460.91
2023-02-21T12:36:45.113Z,95448.47
2023-02-21T12:39:44.288Z,95456.75
2023-02-21T12:42:33.627Z,95449.25
2023-02-21T12:45:42.292Z,95448.69
2023-02-21T12:48:14.731Z,95440.03
2023-02-21T12:50:50.730Z,95437.50
2023-02-21T12:53:25.995Z,95431.34
2023-02-21T12:55:59.487Z,95432.41
2023-02-21T12:58:33.407Z,95425.53
2023-02-21T13:01:44.520Z,95418.22
2023-02-21T13:04:15.910Z,95424.66
2023-02-21T13:06:57.040Z,95418.84
2023-02-21T13:09:49.791Z,95415.47
2023-02-21T13:12:21.310Z,95404.47
2023-02-21T13:14:55.316Z,95408.66
2023-02-21T13:17:22.494Z,95395.22
2023-02-21T13:19:50.945Z,95392.88
2023-02-21T13:23:14.216Z,95389.13
2023-02-21T13:26:48.056Z,95383.16
2023-02-21T13:29:21.983Z,95384.38
2023-02-21T13:31:58.249Z,95377.00
2023-02-21T13:34:29.194Z,95374.28
2023-02-21T13:37:02.014Z,95366.81
2023-02-21T13:39:37.435Z,95364.56
2023-02-21T13:42:20.460Z,95373.03
2023-02-21T13:44:54.315Z,95362.63
2023-02-21T13:47:22.780Z,95359.16
2023-02-21T13:49:50.742Z,95362.38
2023-02-21T13:52:20.107Z,95360.13
2023-02-21T13:55:11.763Z,95356.47
2023-02-21T13:57:59.880Z,95349.91
2023-02-21T14:00:29.628Z,95344.38
2023-02-21T14:03:05.530Z,95343.84
2023-02-21T14:05:44.421Z,95348.53
2023-02-21T14:08:18.930Z,95335.53
2023-02-21T14:10:47.810Z,95347.06
2023-02-21T14:13:24.669Z,95331.56
2023-02-21T14:16:08.325Z,95327.34
2023-02-21T14:19:22.341Z,95324.97
2023-02-21T14:21:55.985Z,95323.03
2023-02-21T14:24:28.684Z,95319.66
2023-02-21T14:27:01.597Z,95319.06
2023-02-21T14:29:40.737Z,95315.09
2023-02-21T14:32:10.580Z,95310.53
2023-02-21T14:34:55.875Z,95310.97
2023-02-21T14:37:38.708Z,95297.94
2023-02-21T14:40:19.000Z,95303.25
2023-02-21T14:42:54.788Z,95301.16
2023-02-21T14:45:46.471Z,95302.84
2023-02-21T14:48:32.155Z,95291.78
2023-02-21T14:51:15.168Z,95288.09
2023-02-21T14:54:02.135Z,95286.25
2023-02-21T14:56:46.831Z,95280.38
2023-02-21T14:59:45.545Z,95268.50
2023-02-21T15:02:48.041Z,95273.91
2023-02-21T15:05:32.074Z,95271.38
2023-02-21T15:08:17.304Z,95270.03
2023-02-21T15:10:46.452Z,95260.88
2023-02-21T15:13:25.848Z,95268.59
2023-02-21T15:16:11.919Z,95256.66
2023-02-21T15:18:40.581Z,95257.94
2023-02-21T15:21:11.583Z,95261.50
2023-02-21T15:23:42.615Z,95251.91
2023-02-21T15:26:22.018Z,95251.72
2023-02-21T15:29:08.793Z,95254.44
2023-02-21T15:31:39.552Z,95247.53
2023-02-21T15:34:06.270Z,95242.88
2023-02-21T15:36:33.550Z,95250.44
2023-02-21T15:39:25.723Z,95244.16
2023-02-21T15:41:54.108Z,95245.81
2023-02-21T15:44:32.783Z,95241.09
2023-02-21T15:47:13.954Z,95239.41
2023-02-21T15:49:45.491Z,95240.31
2023-02-21T15:52:29.895Z,95238.97
2023-02-21T15:55:15.370Z,95239.31
2023-02-21T15:57:42.268Z,95234.88
2023-02-21T16:00:31.977Z,95234.28
2023-02-21T16:03:27.925Z,95232.66
2023-02-21T16:06:28.294Z,95232.75
2023-02-21T16:09:05.444Z,95228.09
2023-02-21T16:11:50.165Z,95222.28
2023-02-21T16:14:44.987Z,95231.94
2023-02-21T16:17:26.200Z,95228.06
2023-02-21T16:19:56.530Z,95226.69
2023-02-21T16:22:43.228Z,95219.03
2023-02-21T16:25:25.172Z,95227.34
2023-02-21T16:27:54.276Z,95230.75
2023-02-21T16:30:25.379Z,95230.56
2023-02-21T16:32:54.218Z,95223.31
2023-02-21T16:35:25.355Z,95228.28
2023-02-21T16:37:58.048Z,95227.97
2023-02-21T16:40:30.614Z,95231.47
2023-02-21T16:42:58.069Z,95226.78
2023-02-21T16:45:25.285Z,95220.91
2023-02-21T16:48:03.613Z,95224.56
2023-02-21T16:50:38.780Z,95225.19
2023-02-21T16:53:06.376Z,95224.16
2023-02-21T16:55:33.051Z,95220.25
2023-02-21T16:58:02.607Z,95223.91
2023-02-21T17:00:31.471Z,95221.44
2023-02-21T17:02:58.090Z,95225.47
2023-02-21T17:05:25.240Z,95228.69
2023-02-21T17:07:54.424Z,95228.38
2023-02-21T17:10:21.935Z,95229.75
2023-02-21T17:12:48.548Z,95234.22
2023-02-21T17:15:15.185Z,95242.28
2023-02-21T17:17:44.496Z,95235.25
2023-02-21T17:20:18.466Z,95239.63
2023-02-21T17:22:45.062Z,95238.03
2023-02-21T17:25:11.728Z,95243.28
2023-02-21T17:27:38.319Z,95238.50
2023-02-21T17:30:06.554Z,95241.88
2023-02-21T17:32:33.428Z,95240.94
2023-02-21T17:35:00.249Z,95247.34
2023-02-21T17:37:26.811Z,95247.94
2023-02-21T17:39:57.008Z,95250.22
2023-02-21T17:42:24.809Z,95258.91
2023-02-21T17:44:52.996Z,95242.91
2023-02-21T17:47:21.252Z,95243.63
2023-02-21T17:49:49.367Z,95244.06
2023-02-21T17:52:16.363Z,95250.16
2023-02-21T17:54:43.696Z,95241.53
2023-02-21T17:57:10.223Z,95240.59
2023-02-21T17:59:37.671Z,95240.53
2023-02-21T18:02:04.964Z,95245.91
2023-02-21T18:04:31.842Z,95250.09
2023-02-21T18:06:58.443Z,95252.25
2023-02-21T18:09:25.663Z,95248.00
2023-02-21T18:11:54.503Z,95243.91
2023-02-21T18:14:22.400Z,95252.16
2023-02-21T18:16:48.984Z,95249.44
2023-02-21T18:19:15.850Z,95248.06
2023-02-21T18:21:45.539Z,95245.88
2023-02-21T18:24:13.549Z,95254.00
2023-02-21T18:26:40.678Z,95252.34
2023-02-21T18:29:08.185Z,95250.63
2023-02-21T18:31:35.762Z,95248.25
2023-02-21T18:34:03.856Z,95237.97
2023-02-21T18:36:31.608Z,95240.31
2023-02-21T18:38:58.981Z,95238.94
2023-02-21T18:41:25.498Z,95243.31
2023-02-21T18:43:52.860Z,95240.66
2023-02-21T18:46:21.885Z,95233.50
2023-02-21T18:48:50.246Z,95241.75
2023-02-21T18:51:19.881Z,95239.47
2023-02-21T18:53:48.611Z,95237.91
2023-02-21T18:56:19.289Z,95237.78
2023-02-21T18:58:47.647Z,95236.63
2023-02-21T19:01:16.873Z,95244.03
2023-02-21T19:03:44.758Z,95242.97
2023-02-21T19:06:13.729Z,95238.56
2023-02-21T19:08:40.315Z,95247.47
2023-02-21T19:11:07.909Z,95246.34
2023-02-21T19:13:34.430Z,95241.16
2023-02-21T19:16:01.064Z,95251.88
2023-02-21T19:18:30.360Z,95246.28
2023-02-21T19:20:57.550Z,95248.75
2023-02-21T19:23:24.581Z,95242.41
2023-02-21T19:25:51.111Z,95247.97
2023-02-21T19:28:17.650Z,95246.72
2023-02-21T19:30:44.339Z,95237.16
2023-02-21T19:33:12.083Z,95237.00
2023-02-21T19:35:39.551Z,95246.44
2023-02-21T19:38:08.452Z,95239.34
2023-02-21T19:40:36.033Z,95238.38
2023-02-21T19:43:03.655Z,95246.63
2023-02-21T19:45:30.413Z,95238.72
2023-02-21T19:47:57.101Z,95236.44
2023-02-21T19:50:24.031Z,95234.00
2023-02-21T19:52:58.608Z,95236.66
2023-02-21T19:55:26.860Z,95233.56
2023-02-21T19:57:53.403Z,95232.53
2023-02-21T20:00:20.465Z,95232.22
2023-02-21T20:02:47.834Z,95238.63
2023-02-21T20:05:16.248Z,95242.44
2023-02-21T20:07:42.866Z,95232.56
2023-02-21T20:10:11.243Z,95241.59
2023-02-21T20:12:37.815Z,95241.91
2023-02-21T20:15:05.594Z,95246.81
2023-02-21T20:17:35.212Z,95233.22
2023-02-21T20:20:01.878Z,95230.72
2023-02-21T20:22:33.949Z,95244.69
2023-02-21T20:25:01.721Z,95245.84
2023-02-21T20:27:29.190Z,95250.44
2023-02-21T20:29:56.496Z,95248.44
2023-02-21T20:32:23.558Z,95239.41
2023-02-21T20:34:54.131Z,95243.84
2023-02-21T20:37:21.205Z,95244.50
2023-02-21T20:39:49.327Z,95245.31
2023-02-21T20:42:16.222Z,95245.28
2023-02-21T20:44:44.226Z,95245.41
2023-02-21T20:47:11.422Z,95240.16
2023-02-21T20:49:39.063Z,95243.47
2023-02-21T20:52:05.931Z,95240.50
2023-02-21T20:54:32.519Z,95247.22
2023-02-21T20:56:59.133Z,95248.50
2023-02-21T20:59:28.888Z,95244.91
2023-02-21T21:01:56.308Z,95244.19
2023-02-21T21:04:29.205Z,95236.97
2023-02-21T21:06:58.754Z,95238.13
2023-02-21T21:09:34.206Z,95235.13
2023-02-21T21:12:02.717Z,95233.13
2023-02-21T21:14:31.411Z,95239.84
2023-02-21T21:16:59.697Z,95229.47
2023-02-21T21:19:27.775Z,95230.25
2023-02-21T21:21:54.371Z,95232.53
2023-02-21T21:24:21.028Z,95229.69
2023-02-21T21:26:52.942Z,95227.69
2023-02-21T21:29:21.670Z,95222.81
2023-02-21T21:31:50.456Z,95227.88
2023-02-21T21:34:23.007Z,95230.47
2023-02-21T21:36:50.601Z,95223.09
2023-02-21T21:39:17.411Z,95222.34
2023-02-21T21:41:52.690Z,95214.31
2023-02-21T21:44:23.378Z,95219.56
2023-02-21T21:46:51.341Z,95223.03
2023-02-21T21:49:20.663Z,95219.97
2023-02-21T21:51:48.553Z,95213.25
2023-02-21T21:54:25.381Z,95207.31
2023-02-21T21:56:56.385Z,95212.47
2023-02-21T21:59:26.965Z,95212.31
2023-02-21T22:01:54.156Z,95215.88
2023-02-21T22:04:22.016Z,95205.94
2023-02-21T22:06:50.043Z,95202.06
2023-02-21T22:09:16.591Z,95207.00
2023-02-21T22:11:45.595Z,95204.38
2023-02-21T22:14:16.966Z,95208.50
2023-02-21T22:16:45.448Z,95212.09
2023-02-21T22:19:11.955Z,95206.75
2023-02-21T22:21:38.577Z,95204.72
2023-02-21T22:24:08.050Z,95211.22
2023-02-21T22:26:34.585Z,95201.41
2023-02-21T22:29:05.884Z,95213.66
2023-02-21T22:31:33.225Z,95209.06
2023-02-21T22:34:02.088Z,95193.75
2023-02-21T22:36:31.448Z,95200.81
2023-02-21T22:38:58.118Z,95207.13
2023-02-21T22:41:27.700Z,95203.56
2023-02-21T22:43:55.468Z,95211.66
2023-02-21T22:46:24.844Z,95203.44
2023-02-21T22:48:52.159Z,95205.72
2023-02-21T22:51:24.300Z,95204.00
2023-02-21T22:53:50.867Z,95203.94
2023-02-21T22:56:23.473Z,95204.41
2023-02-21T22:58:51.343Z,95199.22
2023-02-21T23:01:20.885Z,95201.00
2023-02-21T23:03:47.998Z,95205.25
2023-02-21T23:06:15.078Z,95202.31
2023-02-21T23:08:47.513Z,95203.72
2023-02-21T23:11:23.862Z,95196.28
2023-02-21T23:13:50.392Z,95196.78
2023-02-21T23:16:21.894Z,95193.06
2023-02-21T23:18:48.475Z,95197.91
2023-02-21T23:21:22.776Z,95195.66
2023-02-21T23:23:50.365Z,95189.47
2023-02-21T23:26:20.665Z,95193.66
2023-02-21T23:28:49.272Z,95188.06
2023-02-21T23:31:18.520Z,95195.28
2023-02-21T23:33:48.734Z,95183.41
2023-02-21T23:36:22.361Z,95185.00
2023-02-21T23:38:50.876Z,95188.47
2023-02-21T23:41:18.289Z,95188.06
2023-02-21T23:43:46.439Z,95185.56
2023-02-21T23:46:19.401Z,95182.44
2023-02-21T23:48:46.120Z,95175.56
2023-02-21T23:51:13.880Z,95177.63
2023-02-21T23:53:44.938Z,95176.81
2023-02-21T23:56:13.058Z,95181.97
2023-02-21T23:58:44.405Z,95173.00
